Des Arc, Arkansas
Current Conditions -  °F | °C
As of 7:56 PM on Wednesday 17 Dec 2014 (Local Time) from KSRC Reporting Station
Unknown Precip Unknown Precip  
Wind Chill: 31°   Ceiling: 8500
Heat Index: 37°   Visibility: 10mi
Dew Point: 33°   Wind: 8mph
Humidity: 86%   Direction: 70°ENE
Pressure: 30.27"   Gusts: NA
Location:  34.98°N, 91.5°W
Report Text: KSRC 180156Z AUTO 07007KT 10SM UP OVC085 03/01 A3027 RMK AO2 RAE54UPB54 SLP258 P0001 T00280006 TSNO
Loading
Personal Weather Stations






























Interactive Weather Map New forecast layout! Learn more

10-Day Weather Forecast

Advertisements
Track Severe Weather on mobile